Time;durP1;ratioP1;P1;durP2;ratioP2;P2;SDS_P1;SDS_P2;PMS_P1;PMS_P2;Temp;Humidity;BMP_temperature;BMP_pressure;BME280_temperature;BME280_humidity;BME280_pressure;Samples;Min_cycle;Max_cycle;Signal;HPM_P1;HPM_P2
2022/08/15 00:00:22;;;;;;;7.07;5.00;;;18.90;98.10;;;;;;5034201;28;20033;-46
2022/08/15 00:02:48;;;;;;;8.55;5.05;;;18.90;98.10;;;;;;5033967;28;20057;-47
2022/08/15 00:05:20;;;;;;;7.80;4.68;;;19.00;98.00;;;;;;5033864;28;20029;-43
2022/08/15 00:07:47;;;;;;;7.30;4.90;;;19.00;97.90;;;;;;5034601;28;20029;-52
2022/08/15 00:10:13;;;;;;;6.72;4.60;;;19.10;97.90;;;;;;5033652;28;20080;-45
2022/08/15 00:12:40;;;;;;;5.97;4.70;;;19.20;97.70;;;;;;5034268;28;20057;-51
2022/08/15 00:15:09;;;;;;;4.78;4.18;;;19.10;97.50;;;;;;5033934;28;20018;-43
2022/08/15 00:17:35;;;;;;;;;;;19.10;97.40;;;;;;5034682;28;20120;-51
2022/08/15 00:20:02;;;;;;;5.90;4.50;;;18.90;97.70;;;;;;5034384;28;19935;-53
2022/08/15 00:22:28;;;;;;;5.43;4.53;;;18.90;98.00;;;;;;5033718;28;20022;-45
2022/08/15 00:24:54;;;;;;;5.80;4.70;;;18.80;98.40;;;;;;5034169;28;20028;-42
2022/08/15 00:27:24;;;;;;;5.80;4.80;;;18.80;98.20;;;;;;5033772;28;20025;-46
2022/08/15 00:29:51;;;;;;;5.38;4.57;;;18.70;98.40;;;;;;5033797;28;20120;-54
2022/08/15 00:32:23;;;;;;;6.88;4.95;;;18.70;98.50;;;;;;5032559;28;20033;-43
2022/08/15 00:34:50;;;;;;;5.90;5.07;;;18.70;98.50;;;;;;5033608;28;20480;-48
2022/08/15 00:37:17;;;;;;;9.75;5.28;;;18.70;98.50;;;;;;5033506;28;20079;-46
2022/08/15 00:39:44;;;;;;;6.95;5.38;;;18.60;98.60;;;;;;5033491;28;20041;-50
2022/08/15 00:42:10;;;;;;;5.65;4.95;;;18.60;98.90;;;;;;5033722;28;20052;-46
2022/08/15 00:44:40;;;;;;;7.93;5.43;;;18.50;99.00;;;;;;5033471;28;20388;-48
2022/08/15 00:47:10;;;;;;;7.15;5.57;;;18.50;99.00;;;;;;5033910;28;20038;-44
2022/08/15 00:49:36;;;;;;;6.15;4.90;;;18.50;99.10;;;;;;5033385;28;20065;-49
2022/08/15 00:52:20;;;;;;;6.22;4.70;;;18.30;99.10;;;;;;5033517;28;20478;-49
2022/08/15 00:55:03;;;;;;;6.20;5.57;;;18.00;99.50;;;;;;5031089;28;20108;-48
2022/08/15 00:57:33;;;;;;;7.30;6.38;;;17.90;99.90;;;;;;5033505;28;20021;-42
2022/08/15 01:00:22;;;;;;;7.85;6.85;;;17.80;99.90;;;;;;5033022;28;20507;-46
2022/08/15 01:02:49;;;;;;;8.25;7.07;;;17.80;99.90;;;;;;5033530;28;20063;-49
2022/08/15 01:05:15;;;;;;;8.40;7.53;;;17.70;99.90;;;;;;5033013;28;20078;-51
2022/08/15 01:07:42;;;;;;;10.70;7.70;;;17.60;99.90;;;;;;5033560;28;20030;-51
2022/08/15 01:10:10;;;;;;;9.40;7.95;;;17.70;99.90;;;;;;5032779;28;20048;-47
2022/08/15 01:12:37;;;;;;;12.55;9.95;;;17.80;99.90;;;;;;5032630;28;20388;-43
2022/08/15 01:15:13;;;;;;;12.38;9.30;;;17.80;99.90;;;;;;5032995;28;20021;-50
2022/08/15 01:17:39;;;;;;;12.57;11.27;;;17.90;99.90;;;;;;5020746;28;20488;-51
2022/08/15 01:20:16;;;;;;;15.27;12.60;;;17.90;99.90;;;;;;5032804;28;20033;-51
2022/08/15 01:23:14;;;;;;;14.70;11.80;;;17.90;99.90;;;;;;5020312;28;20132;-51
2022/08/15 01:25:45;;;;;;;12.43;10.70;;;18.00;99.90;;;;;;5031314;28;20049;-53
2022/08/15 01:28:25;;;;;;;8.55;7.50;;;18.10;99.90;;;;;;5032982;28;20014;-50
2022/08/15 01:30:55;;;;;;;11.15;8.75;;;18.10;99.90;;;;;;5032632;28;20472;-51
2022/08/15 01:33:22;;;;;;;11.15;9.57;;;18.10;99.90;;;;;;5032896;28;20120;-47
2022/08/15 01:35:49;;;;;;;13.35;9.77;;;18.00;99.90;;;;;;5031115;28;20033;-47
2022/08/15 01:38:27;;;;;;;10.13;8.73;;;18.00;99.90;;;;;;5032819;28;20026;-44
2022/08/15 01:41:11;;;;;;;12.95;10.07;;;18.00;99.90;;;;;;5032133;28;20041;-52
2022/08/15 01:43:42;;;;;;;13.05;10.90;;;18.00;99.90;;;;;;5032569;28;20473;-47
2022/08/15 01:46:10;;;;;;;12.35;9.95;;;18.00;99.90;;;;;;5032075;28;20033;-49
2022/08/15 01:48:44;;;;;;;12.10;8.75;;;17.80;99.90;;;;;;5032215;28;20532;-54
2022/08/15 01:51:10;;;;;;;11.93;8.73;;;17.80;99.90;;;;;;5031934;28;20021;-50
2022/08/15 01:53:46;;;;;;;14.02;11.00;;;17.80;99.90;;;;;;5032749;28;20499;-45
2022/08/15 01:56:35;;;;;;;18.58;13.60;;;17.70;99.90;;;;;;5032373;28;20026;-45
2022/08/15 01:59:03;;;;;;;13.32;11.25;;;17.70;99.90;;;;;;5032160;28;20041;-52
2022/08/15 02:01:37;;;;;;;15.18;11.35;;;17.60;99.90;;;;;;5031794;28;20037;-47
2022/08/15 02:04:04;;;;;;;17.25;14.60;;;17.60;99.90;;;;;;5032303;28;20021;-52
2022/08/15 02:06:30;;;;;;;25.67;17.73;;;17.60;99.90;;;;;;5032199;28;20093;-51
2022/08/15 02:08:56;;;;;;;23.92;19.80;;;17.70;99.90;;;;;;5031830;28;20108;-46
2022/08/15 02:11:26;;;;;;;27.70;21.88;;;17.70;99.90;;;;;;5031995;28;20099;-49
2022/08/15 02:13:54;;;;;;;32.20;21.90;;;17.80;99.90;;;;;;5030236;28;20045;-52
2022/08/15 02:16:23;;;;;;;26.80;20.02;;;17.80;99.90;;;;;;5031485;28;20044;-51
2022/08/15 02:18:49;;;;;;;24.85;21.23;;;17.80;99.90;;;;;;5031490;28;20067;-50
2022/08/15 02:21:15;;;;;;;28.23;22.77;;;18.00;99.90;;;;;;5031234;28;20464;-49
2022/08/15 02:23:40;;;;;;;30.55;22.08;;;18.10;99.90;;;;;;5032037;28;20091;-56
2022/08/15 02:26:08;;;;;;;28.52;21.70;;;18.20;99.90;;;;;;5031665;28;20061;-44
2022/08/15 02:28:35;;;;;;;27.35;21.83;;;18.20;99.90;;;;;;5018225;28;20033;-42
2022/08/15 02:31:05;;;;;;;27.65;21.42;;;18.30;99.90;;;;;;5031520;28;20017;-42
2022/08/15 02:33:31;;;;;;;33.05;22.27;;;18.40;99.90;;;;;;5031598;28;20481;-42
2022/08/15 02:35:58;;;;;;;28.20;21.40;;;18.50;99.90;;;;;;5031379;28;20044;-43
2022/08/15 02:38:24;;;;;;;27.73;20.65;;;18.60;99.90;;;;;;5031646;28;20048;-50
2022/08/15 02:40:50;;;;;;;32.65;21.88;;;18.60;99.90;;;;;;5031355;28;20045;-45
2022/08/15 02:43:17;;;;;;;30.42;24.50;;;18.70;99.90;;;;;;5031393;28;20473;-51
2022/08/15 02:45:47;;;;;;;32.33;26.85;;;18.70;99.90;;;;;;5031245;28;20572;-43
2022/08/15 02:48:13;;;;;;;32.05;22.95;;;18.70;99.90;;;;;;5031416;28;20028;-43
2022/08/15 02:50:39;;;;;;;32.72;24.27;;;18.70;99.90;;;;;;5030948;28;20056;-45
2022/08/15 02:53:16;;;;;;;30.38;23.58;;;18.70;99.90;;;;;;5031174;28;20032;-45
2022/08/15 02:55:46;;;;;;;29.33;24.13;;;18.60;99.90;;;;;;5030908;28;20048;-42
2022/08/15 02:58:12;;;;;;;;;;;18.60;99.90;;;;;;5031694;28;20476;-52
2022/08/15 03:00:41;;;;;;;35.30;26.10;;;18.60;99.90;;;;;;5030886;28;19917;-50
2022/08/15 03:03:10;;;;;;;31.17;23.70;;;18.50;99.90;;;;;;5031180;28;20022;-44
2022/08/15 03:05:40;;;;;;;30.40;25.30;;;18.50;99.90;;;;;;5030559;28;20040;-46
2022/08/15 03:08:06;;;;;;;29.10;22.80;;;18.50;99.90;;;;;;5031155;28;20099;-43
2022/08/15 03:10:34;;;;;;;34.38;25.45;;;18.50;99.90;;;;;;5030634;28;20045;-42
2022/08/15 03:13:03;;;;;;;34.78;26.35;;;18.50;99.90;;;;;;5031080;28;20022;-43
2022/08/15 03:15:37;;;;;;;29.75;26.05;;;18.50;99.90;;;;;;5031001;28;20021;-47
2022/08/15 03:18:02;;;;;;;31.45;25.73;;;18.50;99.90;;;;;;5017580;28;20116;-46
2022/08/15 03:20:28;;;;;;;34.95;27.67;;;18.50;99.90;;;;;;5030761;28;20468;-45
2022/08/15 03:22:54;;;;;;;36.03;27.92;;;18.40;99.90;;;;;;5030876;28;20037;-43
2022/08/15 03:25:21;;;;;;;35.00;26.23;;;18.40;99.90;;;;;;5030971;28;20465;-51
2022/08/15 03:27:47;;;;;;;35.33;29.08;;;18.30;99.90;;;;;;5030704;28;20075;-46
2022/08/15 03:30:15;;;;;;;36.92;30.08;;;18.20;99.90;;;;;;5030952;28;20029;-47
2022/08/15 03:33:00;;;;;;;35.53;29.50;;;18.20;99.90;;;;;;5030847;28;20022;-45
2022/08/15 03:35:29;;;;;;;32.35;26.13;;;18.20;99.90;;;;;;5030861;28;20033;-46
2022/08/15 03:37:59;;;;;;;40.28;30.70;;;18.10;99.90;;;;;;5030831;28;20017;-53
2022/08/15 03:40:25;;;;;;;37.22;30.08;;;18.10;99.90;;;;;;5029415;28;20049;-47
2022/08/15 03:42:57;;;;;;;40.53;30.15;;;18.10;99.90;;;;;;5030840;28;20061;-44
2022/08/15 03:45:24;;;;;;;36.28;28.88;;;18.10;99.90;;;;;;5019968;28;20083;-51
2022/08/15 03:47:49;;;;;;;42.03;31.25;;;18.10;99.90;;;;;;5030425;28;20025;-48
2022/08/15 03:50:17;;;;;;;36.80;31.15;;;18.10;99.90;;;;;;5030463;28;20033;-47
2022/08/15 03:52:54;;;;;;;41.42;29.85;;;18.10;99.90;;;;;;5030688;28;20503;-46
2022/08/15 03:55:21;;;;;;;35.83;28.50;;;18.00;99.90;;;;;;5030574;28;20063;-45
2022/08/15 03:57:48;;;;;;;39.00;29.35;;;18.00;99.90;;;;;;5030748;28;20485;-47
2022/08/15 04:00:17;;;;;;;40.22;31.05;;;17.90;99.90;;;;;;5030418;28;20065;-47
2022/08/15 04:02:43;;;;;;;41.35;32.38;;;17.90;99.90;;;;;;5030670;28;20017;-43
2022/08/15 04:05:09;;;;;;;40.70;32.35;;;17.90;99.90;;;;;;5030555;28;20036;-47
2022/08/15 04:07:36;;;;;;;41.00;31.90;;;17.90;99.90;;;;;;5030526;28;20022;-51
2022/08/15 04:10:11;;;;;;;42.67;32.50;;;17.90;99.90;;;;;;5025647;28;20050;-46
2022/08/15 04:12:40;;;;;;;42.65;33.08;;;17.90;99.90;;;;;;5020884;28;20033;-45
2022/08/15 04:15:10;;;;;;;40.08;32.35;;;17.80;99.90;;;;;;5028761;28;20036;-44
2022/08/15 04:17:37;;;;;;;37.40;30.90;;;17.90;99.90;;;;;;5029101;28;20021;-46
2022/08/15 04:20:03;;;;;;;39.97;29.85;;;17.90;99.90;;;;;;5027128;28;20026;-49
2022/08/15 04:22:35;;;;;;;38.35;29.00;;;17.90;99.90;;;;;;5020822;28;20037;-42
2022/08/15 04:25:11;;;;;;;37.35;29.85;;;17.90;99.90;;;;;;5030560;28;20017;-55
2022/08/15 04:27:37;;;;;;;34.65;27.52;;;17.90;99.90;;;;;;5030307;28;20025;-49
2022/08/15 04:30:05;;;;;;;33.05;27.00;;;17.80;99.90;;;;;;5032817;28;20040;-43
2022/08/15 04:32:31;;;;;;;34.45;26.58;;;17.90;99.90;;;;;;5033729;28;20041;-47
2022/08/15 04:35:00;;;;;;;31.08;25.92;;;17.80;99.90;;;;;;5033771;28;20480;-49
2022/08/15 04:37:28;;;;;;;33.17;27.58;;;17.90;99.90;;;;;;5032024;28;20100;-48
2022/08/15 04:39:55;;;;;;;32.22;26.73;;;17.90;99.90;;;;;;5033376;28;20179;-49
2022/08/15 04:42:21;;;;;;;32.95;26.30;;;17.90;99.90;;;;;;5033851;28;20026;-45
2022/08/15 04:44:48;;;;;;;32.45;26.73;;;17.80;99.90;;;;;;5033744;28;20038;-45
2022/08/15 04:47:15;;;;;;;36.15;26.38;;;17.80;99.90;;;;;;5033824;28;20025;-49
2022/08/15 04:49:42;;;;;;;31.15;24.42;;;17.80;99.90;;;;;;5033473;28;20041;-49
2022/08/15 04:52:11;;;;;;;31.02;24.77;;;17.80;99.90;;;;;;5027649;28;20096;-47
2022/08/15 04:54:38;;;;;;;30.15;22.67;;;17.80;99.90;;;;;;5032646;28;20618;-45
2022/08/15 04:57:05;;;;;;;27.15;23.17;;;17.90;99.90;;;;;;5031023;28;20076;-43
2022/08/15 04:59:31;;;;;;;30.77;23.35;;;17.90;99.90;;;;;;5031601;28;20036;-45
2022/08/15 05:01:56;;;;;;;33.40;24.85;;;18.00;99.90;;;;;;5031318;28;20055;-48
2022/08/15 05:04:22;;;;;;;34.80;24.88;;;18.00;99.90;;;;;;5031270;28;20029;-52
2022/08/15 05:06:48;;;;;;;31.60;25.38;;;18.00;99.90;;;;;;5030872;28;20558;-45
2022/08/15 05:09:14;;;;;;;31.33;24.02;;;18.10;99.90;;;;;;5030353;28;20053;-48
2022/08/15 05:11:39;;;;;;;27.13;23.27;;;18.10;99.90;;;;;;5031139;28;20025;-53
2022/08/15 05:14:05;;;;;;;29.00;21.95;;;18.20;99.90;;;;;;5031108;28;20769;-52
2022/08/15 05:16:33;;;;;;;25.85;20.13;;;18.30;99.90;;;;;;5031390;28;20025;-49
2022/08/15 05:18:59;;;;;;;32.20;22.42;;;18.30;99.90;;;;;;5031045;28;20053;-44
2022/08/15 05:21:25;;;;;;;27.15;21.08;;;18.40;99.90;;;;;;5030896;28;20032;-41
2022/08/15 05:23:50;;;;;;;26.42;20.92;;;18.40;99.90;;;;;;5031498;28;20448;-43
2022/08/15 05:26:16;;;;;;;25.38;19.88;;;18.40;99.90;;;;;;5031802;28;20090;-45
2022/08/15 05:28:42;;;;;;;24.83;20.42;;;18.50;99.90;;;;;;5033074;28;20030;-46
2022/08/15 05:31:10;;;;;;;26.02;21.85;;;18.50;99.90;;;;;;5032816;28;20036;-47
2022/08/15 05:33:36;;;;;;;25.98;19.65;;;18.60;99.90;;;;;;5032887;28;20380;-42
2022/08/15 05:36:04;;;;;;;31.48;21.80;;;18.60;99.90;;;;;;5032451;28;20044;-47
2022/08/15 05:38:38;;;;;;;24.35;21.38;;;18.60;99.90;;;;;;5018864;28;20021;-47
2022/08/15 05:41:10;;;;;;;28.25;20.23;;;18.60;99.90;;;;;;5032322;28;20125;-49
2022/08/15 05:43:48;;;;;;;22.27;19.20;;;18.70;99.90;;;;;;5032781;28;20100;-49
2022/08/15 05:46:14;;;;;;;27.20;21.02;;;18.80;99.90;;;;;;5032111;28;20491;-51
2022/08/15 05:48:39;;;;;;;24.70;19.55;;;18.90;99.90;;;;;;5032336;28;20428;-52
2022/08/15 05:51:44;;;;;;;25.67;19.52;;;18.90;99.90;;;;;;5032197;28;20033;-48
2022/08/15 05:54:47;;;;;;;23.35;18.90;;;19.10;99.90;;;;;;5030809;28;20033;-43
2022/08/15 05:57:27;;;;;;;25.95;20.20;;;19.20;99.90;;;;;;5029117;28;20737;-45
2022/08/15 06:00:06;;;;;;;23.40;19.15;;;19.20;99.90;;;;;;5031015;28;20041;-45
2022/08/15 06:02:36;;;;;;;24.65;19.08;;;19.30;99.90;;;;;;5026837;28;20036;-47
2022/08/15 06:05:25;;;;;;;20.00;17.60;;;19.40;99.90;;;;;;5031798;28;20033;-51
2022/08/15 06:07:52;;;;;;;23.67;17.88;;;19.50;99.90;;;;;;5031745;28;20076;-50
2022/08/15 06:10:36;;;;;;;20.30;16.83;;;19.60;99.90;;;;;;5031673;28;20088;-44
2022/08/15 06:13:20;;;;;;;21.38;16.80;;;19.70;99.90;;;;;;5031727;28;20025;-50
2022/08/15 06:15:58;;;;;;;24.33;16.50;;;19.80;99.90;;;;;;5027820;28;20064;-44
2022/08/15 06:18:29;;;;;;;24.58;16.70;;;19.80;99.90;;;;;;5027337;28;20095;-47
2022/08/15 06:21:07;;;;;;;21.42;16.67;;;19.90;99.90;;;;;;5030674;28;20029;-49
2022/08/15 06:24:01;;;;;;;19.35;16.13;;;19.90;99.90;;;;;;5020071;28;20112;-47
2022/08/15 06:27:03;;;;;;;20.00;16.17;;;20.10;99.90;;;;;;5029442;28;20043;-43
2022/08/15 06:29:47;;;;;;;20.30;14.82;;;20.70;99.90;;;;;;5017661;28;20036;-50
2022/08/15 06:32:21;;;;;;;20.40;13.70;;;21.60;99.90;;;;;;5033590;28;20107;-47
2022/08/15 06:34:56;;;;;;;18.13;13.40;;;22.60;99.90;;;;;;5031507;28;20029;-53
2022/08/15 06:37:32;;;;;;;15.45;11.27;;;23.50;99.50;;;;;;5031390;28;20026;-53
2022/08/15 06:40:15;;;;;;;13.75;10.98;;;24.40;97.70;;;;;;5031059;28;20333;-48
2022/08/15 06:42:43;;;;;;;14.43;11.90;;;24.90;96.40;;;;;;5027974;28;20106;-47
2022/08/15 06:45:27;;;;;;;14.65;10.88;;;25.30;95.30;;;;;;5031230;28;20026;-46
2022/08/15 06:48:03;;;;;;;12.82;9.45;;;25.50;94.90;;;;;;5031396;28;20029;-47
2022/08/15 06:50:37;;;;;;;13.30;10.40;;;25.80;94.10;;;;;;5031148;28;20025;-50
2022/08/15 06:53:18;;;;;;;14.55;10.45;;;26.10;93.50;;;;;;5030338;28;20465;-51
2022/08/15 06:56:11;;;;;;;12.73;9.15;;;26.10;93.20;;;;;;5030322;28;20037;-47
2022/08/15 06:59:08;;;;;;;12.95;9.57;;;26.30;93.20;;;;;;5027001;28;20104;-46
2022/08/15 07:01:49;;;;;;;14.23;8.75;;;26.50;92.90;;;;;;5028079;28;20120;-43
2022/08/15 07:04:17;;;;;;;11.25;8.23;;;27.00;92.70;;;;;;5024039;28;20033;-43
2022/08/15 07:06:54;;;;;;;14.73;9.18;;;27.40;92.10;;;;;;5030763;28;20235;-45
2022/08/15 07:09:41;;;;;;;10.68;9.13;;;27.60;90.80;;;;;;5027291;28;20046;-45
2022/08/15 07:12:11;;;;;;;;;;;27.60;90.50;;;;;;5030545;28;20511;-45
2022/08/15 07:14:49;;;;;;;9.18;7.30;;;27.50;90.40;;;;;;5030777;28;19909;-44
2022/08/15 07:17:23;;;;;;;9.20;6.30;;;27.40;90.90;;;;;;5030739;28;20022;-53
2022/08/15 07:19:49;;;;;;;12.25;7.65;;;27.70;91.60;;;;;;5030510;28;20040;-50
2022/08/15 07:22:15;;;;;;;7.85;5.90;;;28.10;90.50;;;;;;5030802;28;20041;-53
2022/08/15 07:24:51;;;;;;;13.43;9.07;;;28.70;90.00;;;;;;5030558;28;20017;-52
2022/08/15 07:27:24;;;;;;;9.70;7.13;;;29.00;86.20;;;;;;5030867;28;20025;-49
2022/08/15 07:30:01;;;;;;;11.57;7.97;;;29.00;87.40;;;;;;5030564;28;20022;-47
2022/08/15 07:32:48;;;;;;;9.65;6.93;;;29.20;86.40;;;;;;5024442;28;20030;-47
2022/08/15 07:35:16;;;;;;;8.40;6.25;;;29.20;84.60;;;;;;5018429;28;20136;-52
2022/08/15 07:37:48;;;;;;;10.23;6.25;;;29.50;85.00;;;;;;5030803;28;20037;-44
2022/08/15 07:40:28;;;;;;;9.00;6.78;;;29.50;84.90;;;;;;5030683;28;20026;-56
2022/08/15 07:42:54;;;;;;;8.40;6.20;;;29.60;83.70;;;;;;5030492;28;20021;-56
2022/08/15 07:45:40;;;;;;;10.35;6.65;;;29.90;82.90;;;;;;5030568;28;20021;-46
2022/08/15 07:48:22;;;;;;;9.35;5.93;;;30.30;81.60;;;;;;5030424;28;20481;-46
2022/08/15 07:51:07;;;;;;;7.38;6.20;;;30.80;80.50;;;;;;5030686;28;20022;-45
2022/08/15 07:53:33;;;;;;;7.50;5.00;;;31.00;78.30;;;;;;5030319;28;20059;-44
2022/08/15 07:56:04;;;;;;;11.15;5.00;;;31.20;77.50;;;;;;5030452;28;20116;-52
2022/08/15 07:58:32;;;;;;;8.95;5.65;;;31.70;76.70;;;;;;5030296;28;20037;-46
2022/08/15 08:01:27;;;;;;;9.25;5.43;;;32.20;74.40;;;;;;5028954;28;20128;-45
2022/08/15 08:04:18;;;;;;;6.97;5.50;;;32.60;73.00;;;;;;5032597;28;20036;-44
2022/08/15 08:06:52;;;;;;;6.65;4.55;;;32.60;71.40;;;;;;5034425;28;20025;-47
2022/08/15 08:09:31;;;;;;;7.13;5.30;;;32.80;72.00;;;;;;5034224;28;20041;-52
2022/08/15 08:12:05;;;;;;;;;;;32.70;71.40;;;;;;5034654;28;20090;-46
2022/08/15 08:14:49;;;;;;;7.65;4.88;;;33.10;70.90;;;;;;5034286;28;19909;-43
2022/08/15 08:17:18;;;;;;;6.95;4.55;;;33.50;68.10;;;;;;5033953;28;20045;-44
2022/08/15 08:19:53;;;;;;;6.13;4.03;;;33.20;68.40;;;;;;5034195;28;20037;-45
2022/08/15 08:22:30;;;;;;;6.43;3.70;;;33.70;67.90;;;;;;5034041;28;20021;-46
2022/08/15 08:25:36;;;;;;;7.00;4.75;;;33.90;66.40;;;;;;5034081;28;20021;-49
2022/08/15 08:28:22;;;;;;;6.22;4.25;;;33.10;66.30;;;;;;5033843;28;20031;-49
2022/08/15 08:31:02;;;;;;;8.50;5.35;;;32.60;69.00;;;;;;5033819;28;20030;-44
2022/08/15 08:33:58;;;;;;;5.80;4.60;;;32.50;67.30;;;;;;5020829;28;20017;-47
2022/08/15 08:36:52;;;;;;;6.00;4.28;;;32.10;69.90;;;;;;5033848;28;20044;-45
2022/08/15 08:39:36;;;;;;;10.00;6.38;;;32.10;70.60;;;;;;5033815;28;20114;-50
2022/08/15 08:42:25;;;;;;;7.75;4.20;;;32.60;68.70;;;;;;5033929;28;20086;-47
2022/08/15 08:45:23;;;;;;;9.30;4.88;;;33.40;68.10;;;;;;5033643;28;20033;-46
2022/08/15 08:48:35;;;;;;;7.22;4.57;;;34.40;64.40;;;;;;5033606;28;20080;-53
2022/08/15 08:51:27;;;;;;;9.20;5.85;;;34.60;61.00;;;;;;5019143;28;20550;-48
2022/08/15 08:54:01;;;;;;;8.25;5.70;;;34.20;63.40;;;;;;5017190;28;20068;-49
2022/08/15 08:56:33;;;;;;;9.10;5.43;;;34.20;63.00;;;;;;5033681;28;20025;-53
2022/08/15 08:59:08;;;;;;;8.93;5.68;;;33.60;64.10;;;;;;5033530;28;20033;-49
2022/08/15 09:01:35;;;;;;;7.75;5.60;;;32.90;65.10;;;;;;5032922;28;20128;-53
2022/08/15 09:04:07;;;;;;;8.23;5.00;;;32.30;67.70;;;;;;5027804;28;20380;-48
2022/08/15 09:06:39;;;;;;;9.27;6.22;;;32.10;68.10;;;;;;5033293;28;20091;-49
2022/08/15 09:09:12;;;;;;;10.48;5.68;;;31.30;69.70;;;;;;5033230;28;20068;-52
2022/08/15 09:11:49;;;;;;;10.00;5.80;;;30.90;72.40;;;;;;5033304;28;20035;-49
2022/08/15 09:14:23;;;;;;;8.25;6.55;;;30.90;73.50;;;;;;5032873;28;20108;-51
2022/08/15 09:16:52;;;;;;;8.82;6.35;;;31.50;71.00;;;;;;5033131;28;20079;-55
2022/08/15 09:19:26;;;;;;;9.55;6.07;;;31.80;70.10;;;;;;5033088;28;20028;-48
2022/08/15 09:21:52;;;;;;;8.68;5.70;;;32.20;68.40;;;;;;5032956;28;20034;-51
2022/08/15 09:24:20;;;;;;;9.50;6.40;;;32.60;68.70;;;;;;5032874;28;20393;-53
2022/08/15 09:27:12;;;;;;;8.23;5.93;;;33.10;65.20;;;;;;5032756;28;20483;-48
2022/08/15 09:29:46;;;;;;;7.80;4.78;;;33.00;65.80;;;;;;5032463;28;20037;-48
2022/08/15 09:32:26;;;;;;;10.07;7.20;;;33.20;65.60;;;;;;5032894;28;20025;-45
2022/08/15 09:35:30;;;;;;;8.88;5.25;;;33.00;64.30;;;;;;5032612;28;20029;-44
2022/08/15 09:38:14;;;;;;;11.90;7.07;;;32.10;66.50;;;;;;5032436;28;20032;-56
2022/08/15 09:40:39;;;;;;;9.32;6.68;;;30.70;71.10;;;;;;5032463;28;20128;-49
2022/08/15 09:43:29;;;;;;;10.40;6.30;;;30.40;72.80;;;;;;5032632;28;20062;-46
2022/08/15 09:46:10;;;;;;;9.38;7.05;;;30.10;74.70;;;;;;5029259;28;20040;-46
2022/08/15 09:49:17;;;;;;;9.63;6.07;;;30.10;73.10;;;;;;5031541;28;20021;-48
2022/08/15 09:52:18;;;;;;;7.30;5.60;;;30.50;74.40;;;;;;5012360;28;20045;-51
2022/08/15 09:54:56;;;;;;;11.02;6.00;;;31.10;72.30;;;;;;5032137;28;20038;-48
2022/08/15 09:57:28;;;;;;;7.07;5.60;;;31.20;72.40;;;;;;5031743;28;20065;-48
2022/08/15 10:00:17;;;;;;;12.15;5.70;;;31.80;71.40;;;;;;5031154;28;20061;-47
2022/08/15 10:02:49;;;;;;;8.25;5.82;;;32.40;69.60;;;;;;5031883;28;20039;-52
2022/08/15 10:05:47;;;;;;;9.27;5.28;;;32.40;66.20;;;;;;5031960;28;20547;-48
2022/08/15 10:08:15;;;;;;;9.27;6.25;;;32.50;65.60;;;;;;5031819;28;20049;-42
2022/08/15 10:11:07;;;;;;;8.13;5.07;;;32.00;66.70;;;;;;5031762;28;20048;-49
2022/08/15 10:13:39;;;;;;;8.13;5.32;;;31.90;69.00;;;;;;5029223;28;20531;-49
2022/08/15 10:16:36;;;;;;;9.45;6.35;;;31.60;67.60;;;;;;5031367;28;20029;-50
2022/08/15 10:19:04;;;;;;;8.65;5.70;;;31.10;68.40;;;;;;5030810;28;20052;-46
2022/08/15 10:21:39;;;;;;;7.75;5.50;;;31.30;69.20;;;;;;5030864;28;20444;-48
2022/08/15 10:24:21;;;;;;;6.53;4.93;;;31.20;68.10;;;;;;5031472;28;20049;-54
2022/08/15 10:27:07;;;;;;;6.63;5.30;;;31.40;68.40;;;;;;5027627;28;20021;-45
2022/08/15 10:29:34;;;;;;;9.10;5.80;;;31.90;67.00;;;;;;5031289;28;20542;-42
2022/08/15 10:32:01;;;;;;;6.63;4.88;;;32.10;66.80;;;;;;5030978;28;20376;-43
2022/08/15 10:34:59;;;;;;;8.25;5.82;;;31.90;65.80;;;;;;5031059;28;20366;-51
2022/08/15 10:37:30;;;;;;;6.60;5.03;;;31.70;66.50;;;;;;5014278;28;20087;-49
2022/08/15 10:40:21;;;;;;;8.07;5.30;;;32.10;68.30;;;;;;5031249;28;20432;-46
2022/08/15 10:43:03;;;;;;;9.60;5.28;;;31.90;65.20;;;;;;5024967;28;20112;-52
2022/08/15 10:45:59;;;;;;;5.78;4.60;;;31.60;66.20;;;;;;5030355;28;20029;-52
2022/08/15 10:48:42;;;;;;;7.10;5.30;;;31.60;67.70;;;;;;5028139;28;20026;-47
2022/08/15 10:51:26;;;;;;;9.68;5.43;;;31.20;66.10;;;;;;5031473;28;20136;-52
2022/08/15 10:54:34;;;;;;;11.45;6.00;;;31.00;66.90;;;;;;5031351;28;20033;-52
2022/08/15 10:57:02;;;;;;;10.23;6.68;;;30.50;68.70;;;;;;5031066;28;20108;-46
2022/08/15 10:59:39;;;;;;;8.83;6.40;;;30.60;68.60;;;;;;5030836;28;20013;-46
2022/08/15 11:02:20;;;;;;;9.17;6.50;;;31.10;67.90;;;;;;5023060;28;20520;-45
2022/08/15 11:04:47;;;;;;;8.00;5.68;;;30.80;68.60;;;;;;5029810;28;20273;-46
2022/08/15 11:07:28;;;;;;;10.40;6.43;;;31.10;69.10;;;;;;5031131;28;20021;-47
2022/08/15 11:10:00;;;;;;;11.07;6.03;;;31.50;66.50;;;;;;5030753;28;20045;-45
2022/08/15 11:12:29;;;;;;;10.93;5.88;;;31.60;67.70;;;;;;5031203;28;20021;-47
2022/08/15 11:15:00;;;;;;;9.93;5.93;;;31.60;66.70;;;;;;5030948;28;20479;-50
2022/08/15 11:17:29;;;;;;;8.98;5.70;;;31.30;66.50;;;;;;5031007;28;20025;-47
2022/08/15 11:20:04;;;;;;;10.63;6.30;;;31.10;68.10;;;;;;5030752;28;20080;-51
2022/08/15 11:22:37;;;;;;;11.82;8.15;;;31.20;69.00;;;;;;5030733;28;20104;-48
2022/08/15 11:25:17;;;;;;;10.55;7.05;;;30.90;67.00;;;;;;5030815;28;20392;-48
2022/08/15 11:27:46;;;;;;;13.05;6.75;;;30.80;69.20;;;;;;5030349;28;20064;-48
2022/08/15 11:30:21;;;;;;;9.52;6.50;;;31.00;69.00;;;;;;5030105;28;20104;-47
2022/08/15 11:32:47;;;;;;;11.65;7.35;;;31.20;68.70;;;;;;5025815;28;20056;-50
2022/08/15 11:35:24;;;;;;;11.48;7.30;;;31.10;66.00;;;;;;5030736;28;20408;-48
2022/08/15 11:37:54;;;;;;;13.98;7.07;;;31.10;68.50;;;;;;5031476;28;20029;-50
2022/08/15 11:40:37;;;;;;;8.77;6.88;;;31.20;67.00;;;;;;5034726;28;20038;-46
2022/08/15 11:43:05;;;;;;;10.88;7.25;;;31.00;67.70;;;;;;5033785;28;20029;-47
2022/08/15 11:45:38;;;;;;;11.37;6.87;;;31.40;67.70;;;;;;5034876;28;20029;-53
2022/08/15 11:48:14;;;;;;;13.30;6.32;;;31.70;66.00;;;;;;5034768;28;20269;-52
2022/08/15 11:50:53;;;;;;;12.35;7.53;;;31.70;65.60;;;;;;5033349;28;20021;-50
2022/08/15 11:53:19;;;;;;;9.00;6.30;;;30.90;64.70;;;;;;5034511;28;20079;-47
2022/08/15 11:55:47;;;;;;;9.40;6.97;;;30.80;68.60;;;;;;5034449;28;20060;-45
2022/08/15 11:58:12;;;;;;;10.02;7.45;;;30.90;66.90;;;;;;5034534;28;20552;-50
2022/08/15 12:00:44;;;;;;;10.55;7.72;;;30.60;66.60;;;;;;5034370;28;20113;-48
2022/08/15 12:03:25;;;;;;;11.27;7.47;;;29.90;67.80;;;;;;5034410;28;20021;-51
2022/08/15 12:05:58;;;;;;;10.18;6.38;;;29.90;70.60;;;;;;5034179;28;20029;-49
2022/08/15 12:08:30;;;;;;;9.70;6.43;;;30.40;70.20;;;;;;5030120;28;20025;-49
2022/08/15 12:11:16;;;;;;;12.20;7.85;;;31.40;67.80;;;;;;5034215;28;20045;-50
2022/08/15 12:14:03;;;;;;;9.98;7.22;;;31.80;65.50;;;;;;5023192;28;20033;-48
2022/08/15 12:16:53;;;;;;;9.70;6.50;;;32.20;64.80;;;;;;5033077;28;20025;-48
2022/08/15 12:19:29;;;;;;;11.40;6.53;;;32.30;64.20;;;;;;5033617;28;20045;-44
2022/08/15 12:22:00;;;;;;;9.55;6.97;;;31.90;62.90;;;;;;5032700;28;20404;-44
2022/08/15 12:24:33;;;;;;;10.63;7.97;;;31.40;63.80;;;;;;5033685;28;20488;-52
2022/08/15 12:27:02;;;;;;;10.13;8.02;;;30.60;63.70;;;;;;5034248;28;20072;-53
2022/08/15 12:29:29;;;;;;;;;;;29.80;65.70;;;;;;5034042;28;20105;-44
2022/08/15 12:31:58;;;;;;;10.82;7.00;;;29.30;68.60;;;;;;5033828;28;20004;-46
2022/08/15 12:34:24;;;;;;;;;;;29.10;69.60;;;;;;5033374;28;20028;-52
2022/08/15 12:36:51;;;;;;;13.05;7.85;;;28.80;69.80;;;;;;5029976;28;19905;-48
2022/08/15 12:39:18;;;;;;;10.18;6.80;;;28.50;70.60;;;;;;5032915;28;20026;-47
2022/08/15 12:41:49;;;;;;;8.45;7.00;;;28.90;72.80;;;;;;5032347;28;20037;-49
2022/08/15 12:44:31;;;;;;;10.88;6.65;;;29.60;71.10;;;;;;5033788;28;20021;-50
2022/08/15 12:46:57;;;;;;;10.90;6.70;;;30.50;67.30;;;;;;5033421;28;20044;-49
2022/08/15 12:49:23;;;;;;;10.05;6.85;;;30.90;65.10;;;;;;5032559;28;20033;-45
2022/08/15 12:51:49;;;;;;;11.30;7.07;;;31.20;63.70;;;;;;5033408;28;20030;-51
2022/08/15 12:54:15;;;;;;;8.82;7.20;;;31.60;64.00;;;;;;5033722;28;20033;-51
2022/08/15 12:56:42;;;;;;;9.10;6.13;;;31.10;62.80;;;;;;5032917;28;20047;-47
2022/08/15 12:59:07;;;;;;;7.43;5.80;;;30.90;64.30;;;;;;5033155;28;20061;-51
2022/08/15 13:01:35;;;;;;;9.13;7.07;;;30.50;65.30;;;;;;5033261;28;20448;-45
2022/08/15 13:04:04;;;;;;;8.88;6.70;;;29.80;65.20;;;;;;5033412;28;20129;-49
2022/08/15 13:06:53;;;;;;;8.38;7.45;;;29.00;67.90;;;;;;5033518;28;20116;-47
2022/08/15 13:09:19;;;;;;;;;;;28.10;70.90;;;;;;5022674;28;20049;-46
2022/08/15 13:11:46;;;;;;;8.68;7.15;;;27.80;72.70;;;;;;5032995;28;19955;-48